Time;durP1;ratioP1;P1;durP2;ratioP2;P2;SDS_P1;SDS_P2;PMS_P1;PMS_P2;Temp;Humidity;BMP_temperature;BMP_pressure;BME280_temperature;BME280_humidity;BME280_pressure;Samples;Min_cycle;Max_cycle;Signal;HPM_P1;HPM_P2
2022/01/16 00:02:09;;;;;;;;;;;;;;;2.38;92.09;101049.90;1748577;81;20458;-80
2022/01/16 00:04:13;;;;;;;;;;;;;;;2.21;92.91;101059.07;1747290;80;20152;-81
2022/01/16 00:06:40;;;;;;;;;;;;;;;2.42;92.78;101054.01;1750739;80;21079;-82
2022/01/16 00:09:05;;;;;;;;;;;;;;;2.13;93.59;101059.00;1752701;81;21054;-81
2022/01/16 00:11:31;;;;;;;;;;;;;;;2.31;93.41;101055.05;1746967;81;20114;-80
2022/01/16 00:13:57;;;;;;;;;;;;;;;2.34;92.77;101057.49;1755089;81;20165;-80
2022/01/16 00:16:23;;;;;;;;;;;;;;;2.42;92.90;101051.41;1758252;81;20144;-80
2022/01/16 00:18:54;;;;;;;;;;;;;;;2.44;92.36;101044.36;1752503;81;21150;-80
2022/01/16 00:21:22;;;;;;;;;;;;;;;2.68;90.64;101040.05;1742881;81;20513;-79
2022/01/16 00:23:47;;;;;;;;;;;;;;;2.50;91.33;101064.89;1739335;81;20516;-80
2022/01/16 00:26:13;;;;;;;;;;;;;;;2.80;90.36;101061.55;1748041;81;20187;-82
2022/01/16 00:28:39;;;;;;;;;;;;;;;2.68;90.54;101054.39;1749152;81;20530;-79
2022/01/16 00:31:04;;;;;;;;;;;;;;;2.51;90.79;101039.66;1750433;81;22023;-80
2022/01/16 00:33:30;;;;;;;;;;;;;;;2.47;91.69;101045.50;1752781;81;20206;-80
2022/01/16 00:35:55;;;;;;;;;;;;;;;2.55;91.57;101042.93;1751107;80;20166;-82
2022/01/16 00:38:21;;;;;;;;;;;;;;;2.34;91.77;101048.37;1752131;81;20127;-83
2022/01/16 00:40:47;;;;;;;;;;;;;;;2.50;91.43;101053.16;1755949;81;20133;-84
2022/01/16 00:43:13;;;;;;;;;;;;;;;2.41;91.19;101049.73;1748668;81;21096;-81
2022/01/16 00:45:39;;;;;;;;;;;;;;;2.24;92.69;101047.19;1753509;81;20200;-81
2022/01/16 00:48:05;;;;;;;;;;;;;;;2.19;92.43;101063.50;1751566;81;21240;-82
2022/01/16 00:50:31;;;;;;;;;;;;;;;2.32;91.99;101049.75;1760048;81;20188;-82
2022/01/16 00:52:56;;;;;;;;;;;;;;;2.48;91.28;101034.13;1755109;80;20282;-80
2022/01/16 00:55:22;;;;;;;;;;;;;;;2.08;92.70;101037.56;1752961;80;21246;-79
2022/01/16 00:57:48;;;;;;;;;;;;;;;2.17;92.17;101062.75;1758255;81;20829;-80
2022/01/16 01:00:13;;;;;;;;;;;;;;;2.08;93.03;101065.36;1749480;81;20110;-80
2022/01/16 01:02:39;;;;;;;;;;;;;;;2.17;93.16;101066.66;1750777;81;20126;-80
2022/01/16 01:05:05;;;;;;;;;;;;;;;2.15;92.36;101085.81;1753666;81;20158;-81
2022/01/16 01:07:31;;;;;;;;;;;;;;;2.25;91.41;101069.70;1750525;81;21084;-82
2022/01/16 01:09:57;;;;;;;;;;;;;;;2.52;90.44;101071.33;1750715;81;20192;-80
2022/01/16 01:12:30;;;;;;;;;;;;;;;2.83;89.13;101052.26;1745074;81;20160;-81
2022/01/16 01:15:06;;;;;;;;;;;;;;;2.79;88.93;101015.52;1752779;81;20187;-81
2022/01/16 01:17:24;;;;;;;;;;;;;;;2.76;88.50;101020.08;1743050;81;20627;-80
2022/01/16 01:19:47;;;;;;;;;;;;;;;2.28;90.27;101048.69;1749563;81;20105;-80
2022/01/16 01:22:13;;;;;;;;;;;;;;;1.87;91.75;101041.27;1753701;81;20185;-79
2022/01/16 01:24:39;;;;;;;;;;;;;;;1.91;92.36;101012.38;1752049;80;20158;-81
2022/01/16 01:27:23;;;;;;;;;;;;;;;2.20;91.29;101028.72;1752508;80;20182;-79
2022/01/16 01:29:48;;;;;;;;;;;;;;;1.98;91.22;101031.96;1747445;81;20167;-79
2022/01/16 01:32:08;;;;;;;;;;;;;;;1.93;91.52;100999.28;1749776;81;21147;-79
2022/01/16 01:34:34;;;;;;;;;;;;;;;1.91;91.78;101010.22;1753679;81;20146;-80
2022/01/16 01:37:00;;;;;;;;;;;;;;;1.90;91.64;101011.16;1753616;80;20158;-79
2022/01/16 01:39:25;;;;;;;;;;;;;;;2.26;89.66;100982.79;1747874;80;20537;-79
2022/01/16 01:41:55;;;;;;;;;;;;;;;2.45;89.07;101014.74;1752253;81;20269;-80
2022/01/16 01:52:30;;;;;;;;;;;;;;;2.37;89.15;100884.00;1751276;81;20289;-78
2022/01/16 01:54:56;;;;;;;;;;;;;;;2.60;88.40;100905.35;1747980;81;20604;-80
2022/01/16 01:57:21;;;;;;;;;;;;;;;2.26;89.53;100902.00;1753113;81;20976;-78
2022/01/16 01:59:47;;;;;;;;;;;;;;;2.19;90.19;100905.41;1752803;81;20188;-82
2022/01/16 02:02:13;;;;;;;;;;;;;;;2.17;89.78;100892.91;1749730;80;20205;-81
2022/01/16 02:04:38;;;;;;;;;;;;;;;2.35;89.13;100928.86;1748320;81;20175;-80
2022/01/16 02:07:04;;;;;;;;;;;;;;;2.16;89.82;100934.23;1753201;80;20603;-81
2022/01/16 02:09:31;;;;;;;;;;;;;;;1.33;92.10;100956.28;1747632;80;21033;-77
2022/01/16 02:11:56;;;;;;;;;;;;;;;0.62;96.36;100976.63;1751376;80;20164;-80
2022/01/16 02:14:31;;;;;;;;;;;;;;;1.97;90.41;100966.92;1753190;80;20189;-79
2022/01/16 02:28:07;;;;;;;;;;;;;;;1.99;89.34;100962.49;1748432;80;20127;-81
2022/01/16 02:31:01;;;;;;;;;;;;;;;1.68;90.06;100976.23;1752963;81;20146;-78
2022/01/16 02:35:57;;;;;;;;;;;;;;;2.04;87.93;100960.48;1758653;80;20180;-79
2022/01/16 02:38:23;;;;;;;;;;;;;;;1.97;87.61;100966.92;1754020;81;20610;-79
2022/01/16 02:40:50;;;;;;;;;;;;;;;2.38;86.63;100958.67;1748085;81;20282;-79
2022/01/16 02:43:18;;;;;;;;;;;;;;;2.24;86.45;100967.70;1753661;80;20497;-80
2022/01/16 02:45:47;;;;;;;;;;;;;;;2.15;87.04;100994.61;1741999;81;20103;-79
2022/01/16 02:48:10;;;;;;;;;;;;;;;2.03;87.41;100985.30;1730200;81;20163;-78
2022/01/16 02:50:37;;;;;;;;;;;;;;;2.25;86.72;100968.06;1732458;81;20340;-80
2022/01/16 02:53:10;;;;;;;;;;;;;;;2.17;86.92;100970.25;1737715;81;20233;-80
2022/01/16 02:55:33;;;;;;;;;;;;;;;1.80;88.19;100971.70;1732623;81;20662;-78
2022/01/16 02:57:59;;;;;;;;;;;;;;;2.10;87.51;100977.56;1741440;81;20133;-78
2022/01/16 03:00:24;;;;;;;;;;;;;;;2.00;87.61;100969.36;1739242;81;21143;-78
2022/01/16 03:02:50;;;;;;;;;;;;;;;2.25;86.76;100957.64;1726292;81;20362;-79
2022/01/16 03:05:16;;;;;;;;;;;;;;;2.29;86.30;100970.89;1739360;81;21349;-77
2022/01/16 03:07:42;;;;;;;;;;;;;;;2.10;86.61;100967.97;1732503;81;20126;-77
2022/01/16 03:10:30;;;;;;;;;;;;;;;2.40;85.58;100954.20;1754078;81;20180;-78
2022/01/16 03:12:38;;;;;;;;;;;;;;;2.62;84.93;100951.25;1725470;81;20205;-78
2022/01/16 03:15:04;;;;;;;;;;;;;;;2.67;84.83;100952.30;1742018;81;20631;-79
2022/01/16 03:17:51;;;;;;;;;;;;;;;2.53;84.73;100963.97;1733686;80;20189;-80
2022/01/16 03:22:48;;;;;;;;;;;;;;;2.17;85.49;100958.52;1745644;81;20178;-78
2022/01/16 03:25:13;;;;;;;;;;;;;;;2.22;85.31;100964.32;1744859;81;21078;-78
2022/01/16 03:27:39;;;;;;;;;;;;;;;2.00;86.14;100953.73;1738995;81;21071;-78
2022/01/16 03:30:06;;;;;;;;;;;;;;;1.93;86.87;100957.60;1734106;81;20258;-78
2022/01/16 03:32:31;;;;;;;;;;;;;;;1.83;86.47;100949.88;1736862;81;20317;-81
2022/01/16 03:34:57;;;;;;;;;;;;;;;1.98;86.46;100938.66;1724776;81;20244;-78
2022/01/16 03:37:22;;;;;;;;;;;;;;;2.25;85.20;100926.37;1728831;81;21953;-78
2022/01/16 03:39:48;;;;;;;;;;;;;;;1.99;85.87;100926.02;1739660;81;20133;-80
2022/01/16 03:42:14;;;;;;;;;;;;;;;2.06;85.98;100939.08;1732556;81;20536;-78
2022/01/16 03:44:40;;;;;;;;;;;;;;;2.19;85.53;100930.17;1733769;80;20600;-78
2022/01/16 03:47:05;;;;;;;;;;;;;;;2.06;85.69;100932.56;1735221;81;20146;-78
2022/01/16 03:49:31;;;;;;;;;;;;;;;2.10;85.31;100923.67;1730534;82;21079;-78
2022/01/16 03:51:57;;;;;;;;;;;;;;;2.06;85.18;100918.23;1736006;82;20166;-77
2022/01/16 03:54:27;;;;;;;;;;;;;;;2.14;85.20;100917.39;1729609;82;20482;-77
2022/01/16 03:56:53;;;;;;;;;;;;;;;2.38;84.70;100913.06;1735729;81;20226;-79
2022/01/16 03:59:18;;;;;;;;;;;;;;;2.22;84.83;100905.69;1729615;82;20431;-81
2022/01/16 04:01:44;;;;;;;;;;;;;;;2.22;85.39;100891.36;1736563;82;21020;-80
2022/01/16 04:04:09;;;;;;;;;;;;;;;2.18;84.82;100908.10;1739982;82;20523;-77
2022/01/16 04:06:35;;;;;;;;;;;;;;;2.13;84.87;100913.56;1737289;81;20166;-77
2022/01/16 04:09:01;;;;;;;;;;;;;;;1.75;84.61;100921.16;1739211;82;20137;-80
2022/01/16 04:11:28;;;;;;;;;;;;;;;2.06;83.78;100916.11;1729397;82;20226;-80
2022/01/16 04:14:03;;;;;;;;;;;;;;;1.90;83.73;100906.98;1732889;82;21140;-79
2022/01/16 04:16:22;;;;;;;;;;;;;;;1.89;83.47;100914.40;1728968;81;20114;-81
2022/01/16 04:18:51;;;;;;;;;;;;;;;1.99;83.33;100909.09;1730016;82;20221;-80
2022/01/16 04:21:21;;;;;;;;;;;;;;;2.02;83.38;100907.63;1735035;82;20202;-81
2022/01/16 04:23:47;;;;;;;;;;;;;;;1.89;83.19;100900.08;1736914;81;20515;-79
2022/01/16 04:26:13;;;;;;;;;;;;;;;1.97;82.56;100888.78;1729100;82;22041;-79
2022/01/16 04:28:39;;;;;;;;;;;;;;;2.17;81.85;100897.29;1733961;82;20198;-79
2022/01/16 04:31:04;;;;;;;;;;;;;;;2.28;81.46;100887.11;1735229;82;20638;-78
2022/01/16 04:33:30;;;;;;;;;;;;;;;1.96;81.95;100893.63;1735749;82;20142;-78
2022/01/16 04:35:56;;;;;;;;;;;;;;;1.94;81.40;100885.03;1740397;82;20174;-78
2022/01/16 04:38:21;;;;;;;;;;;;;;;1.84;81.73;100878.66;1739543;81;21085;-80
2022/01/16 04:43:51;;;;;;;;;;;;;;;1.83;82.27;100895.19;1736041;81;20134;-78
2022/01/16 04:46:21;;;;;;;;;;;;;;;1.95;82.14;100896.67;1738833;81;20185;-78
2022/01/16 04:48:46;;;;;;;;;;;;;;;1.94;82.66;100888.50;1755504;81;20334;-80
2022/01/16 04:51:12;;;;;;;;;;;;;;;1.87;82.07;100879.80;1762699;81;22270;-78
2022/01/16 04:53:38;;;;;;;;;;;;;;;1.77;81.89;100872.91;1760211;81;20141;-81
2022/01/16 04:56:04;;;;;;;;;;;;;;;2.00;81.76;100865.64;1758230;81;20187;-81
2022/01/16 04:58:29;;;;;;;;;;;;;;;1.97;81.97;100874.01;1756822;81;20192;-81
2022/01/16 05:00:55;;;;;;;;;;;;;;;1.36;83.87;100871.56;1756888;80;20541;-79
2022/01/16 05:03:22;;;;;;;;;;;;;;;2.21;81.35;100867.55;1754278;81;21008;-79
2022/01/16 05:05:48;;;;;;;;;;;;;;;2.27;81.02;100873.69;1758425;81;20157;-79
2022/01/16 05:08:13;;;;;;;;;;;;;;;2.17;81.01;100860.81;1756455;81;20137;-79
2022/01/16 05:10:39;;;;;;;;;;;;;;;2.26;79.51;100866.82;1761050;81;20500;-80
2022/01/16 05:13:28;;;;;;;;;;;;;;;2.21;78.80;100849.31;1761477;81;20180;-79
2022/01/16 05:18:16;;;;;;;;;;;;;;;2.44;78.14;100857.98;1761860;81;20687;-79
2022/01/16 05:20:42;;;;;;;;;;;;;;;2.43;78.01;100847.16;1758355;81;20143;-78
2022/01/16 05:23:07;;;;;;;;;;;;;;;2.67;77.11;100846.24;1756234;80;20183;-80
2022/01/16 05:25:33;;;;;;;;;;;;;;;2.75;77.34;100848.86;1749154;80;20162;-80
2022/01/16 05:27:58;;;;;;;;;;;;;;;2.61;77.02;100839.22;1755464;81;22336;-79
2022/01/16 05:30:24;;;;;;;;;;;;;;;2.64;76.90;100833.83;1756528;81;20151;-78
2022/01/16 05:32:49;;;;;;;;;;;;;;;2.61;76.97;100832.70;1758507;81;20284;-79
2022/01/16 05:35:15;;;;;;;;;;;;;;;2.69;76.67;100838.33;1752664;81;20133;-79
2022/01/16 05:37:41;;;;;;;;;;;;;;;2.81;76.35;100836.32;1758078;81;20142;-78
2022/01/16 05:40:06;;;;;;;;;;;;;;;2.87;76.12;100828.14;1743046;81;21141;-79
2022/01/16 05:42:32;;;;;;;;;;;;;;;3.22;75.32;100819.97;1749113;80;20181;-79
2022/01/16 05:44:58;;;;;;;;;;;;;;;3.14;74.73;100814.38;1761423;80;20191;-82
2022/01/16 05:47:24;;;;;;;;;;;;;;;2.83;75.08;100813.59;1756134;80;20215;-79
2022/01/16 05:49:49;;;;;;;;;;;;;;;2.93;75.54;100806.52;1745849;80;20179;-79
2022/01/16 05:52:15;;;;;;;;;;;;;;;3.21;75.16;100801.80;1754160;81;21057;-78
2022/01/16 05:54:40;;;;;;;;;;;;;;;3.05;74.57;100804.49;1747829;81;20780;-79
2022/01/16 05:57:06;;;;;;;;;;;;;;;2.35;75.16;100794.64;1753056;80;20156;-79
2022/01/16 05:59:32;;;;;;;;;;;;;;;2.24;76.21;100786.59;1752418;80;20157;-79
2022/01/16 06:01:57;;;;;;;;;;;;;;;2.30;75.94;100787.52;1748005;81;20163;-79
2022/01/16 06:04:23;;;;;;;;;;;;;;;1.84;77.30;100796.63;1751824;80;21078;-78
2022/01/16 06:06:49;;;;;;;;;;;;;;;1.55;78.03;100783.41;1756473;81;20459;-78
2022/01/16 06:09:14;;;;;;;;;;;;;;;1.69;78.43;100777.45;1750564;81;20138;-78
2022/01/16 06:11:40;;;;;;;;;;;;;;;1.46;79.19;100779.99;1752829;80;20143;-78
2022/01/16 06:14:05;;;;;;;;;;;;;;;1.60;78.99;100791.80;1755969;80;20612;-77
2022/01/16 06:16:31;;;;;;;;;;;;;;;1.90;78.44;100783.27;1747187;80;21092;-77
2022/01/16 06:18:56;;;;;;;;;;;;;;;2.11;77.63;100789.89;1747038;81;20471;-78
2022/01/16 06:21:22;;;;;;;;;;;;;;;2.18;77.40;100776.52;1752333;80;20181;-77
2022/01/16 06:23:47;;;;;;;;;;;;;;;2.13;77.43;100769.79;1749287;80;20145;-79
2022/01/16 06:26:13;;;;;;;;;;;;;;;1.83;77.92;100774.09;1756077;81;20138;-78
2022/01/16 06:28:39;;;;;;;;;;;;;;;2.13;77.42;100768.48;1748539;81;21804;-77
2022/01/16 06:31:04;;;;;;;;;;;;;;;2.00;77.67;100760.97;1754374;80;20176;-77
2022/01/16 06:33:30;;;;;;;;;;;;;;;1.96;77.32;100760.31;1743711;81;20136;-78
2022/01/16 06:35:56;;;;;;;;;;;;;;;1.88;77.91;100764.26;1746602;81;20144;-81
2022/01/16 06:38:21;;;;;;;;;;;;;;;1.91;78.14;100757.58;1753357;80;20757;-81
2022/01/16 06:40:47;;;;;;;;;;;;;;;2.12;76.82;100749.86;1745012;81;21931;-77
2022/01/16 06:43:12;;;;;;;;;;;;;;;1.95;76.93;100735.19;1751361;80;20170;-80
2022/01/16 06:45:38;;;;;;;;;;;;;;;1.52;78.03;100733.65;1756683;81;20197;-77
2022/01/16 06:48:03;;;;;;;;;;;;;;;1.92;77.52;100725.41;1736504;80;20193;-77
2022/01/16 06:50:29;;;;;;;;;;;;;;;2.30;76.60;100729.75;1722799;82;20480;-78
2022/01/16 06:52:54;;;;;;;;;;;;;;;2.45;76.17;100741.03;1727645;82;22358;-77
2022/01/16 06:55:20;;;;;;;;;;;;;;;2.55;75.98;100730.06;1730912;82;20182;-77
2022/01/16 06:57:46;;;;;;;;;;;;;;;1.97;76.58;100727.28;1699725;83;20229;-77
2022/01/16 07:00:12;;;;;;;;;;;;;;;1.94;76.90;100735.27;1711348;81;20150;-79
2022/01/16 07:02:37;;;;;;;;;;;;;;;1.48;78.96;100729.55;1710111;83;20727;-78
2022/01/16 07:05:04;;;;;;;;;;;;;;;1.52;78.49;100732.81;1709985;83;21104;-78
2022/01/16 07:07:30;;;;;;;;;;;;;;;1.24;79.80;100739.50;1706362;83;20208;-78
2022/01/16 07:09:56;;;;;;;;;;;;;;;1.51;79.53;100737.63;1728761;82;20469;-79
2022/01/16 07:12:22;;;;;;;;;;;;;;;1.81;78.44;100744.71;1724910;82;20471;-79
2022/01/16 07:14:48;;;;;;;;;;;;;;;1.61;78.84;100750.06;1724475;82;20223;-79
2022/01/16 07:17:13;;;;;;;;;;;;;;;1.34;79.27;100752.41;1722160;82;21135;-77
2022/01/16 07:19:39;;;;;;;;;;;;;;;1.38;79.21;100752.64;1724365;82;20218;-80
2022/01/16 07:22:05;;;;;;;;;;;;;;;1.71;78.52;100745.22;1719619;82;20159;-79
2022/01/16 07:24:30;;;;;;;;;;;;;;;1.51;78.90;100750.65;1725119;82;21423;-79
2022/01/16 07:26:58;;;;;;;;;;;;;;;1.73;78.51;100748.56;1726066;82;20151;-78
2022/01/16 07:29:23;;;;;;;;;;;;;;;1.71;78.31;100746.96;1722748;82;21110;-81
2022/01/16 07:31:49;;;;;;;;;;;;;;;1.87;78.55;100749.58;1725188;82;20163;-80
2022/01/16 07:34:14;;;;;;;;;;;;;;;1.73;79.03;100753.77;1723543;82;20741;-78
2022/01/16 07:36:40;;;;;;;;;;;;;;;1.51;79.04;100750.65;1725860;82;20151;-78
2022/01/16 07:39:06;;;;;;;;;;;;;;;1.56;79.67;100749.95;1720435;82;20346;-80
2022/01/16 07:41:31;;;;;;;;;;;;;;;1.72;79.18;100754.69;1725196;82;21085;-77
2022/01/16 07:43:57;;;;;;;;;;;;;;;2.11;77.79;100753.42;1723652;82;20797;-80
2022/01/16 07:46:23;;;;;;;;;;;;;;;2.11;77.47;100750.81;1726038;82;20159;-78
2022/01/16 07:48:48;;;;;;;;;;;;;;;2.24;77.20;100758.77;1770286;80;20189;-80
2022/01/16 07:51:14;;;;;;;;;;;;;;;2.38;76.38;100755.81;1758423;80;20181;-78
2022/01/16 07:53:39;;;;;;;;;;;;;;;2.09;77.22;100752.64;1764686;80;21089;-77
2022/01/16 07:56:05;;;;;;;;;;;;;;;2.36;76.82;100751.98;1756247;80;20181;-78
2022/01/16 07:58:31;;;;;;;;;;;;;;;2.76;76.28;100757.48;1768546;80;21046;-78
2022/01/16 08:00:56;;;;;;;;;;;;;;;2.65;75.96;100756.81;1767078;80;20473;-80
2022/01/16 08:03:22;;;;;;;;;;;;;;;2.85;75.29;100750.42;1748624;80;20161;-82
2022/01/16 08:05:48;;;;;;;;;;;;;;;2.56;75.73;100747.40;1755841;80;21809;-85
2022/01/16 08:08:14;;;;;;;;;;;;;;;2.85;75.30;100747.81;1755785;80;20189;-81
2022/01/16 08:10:40;;;;;;;;;;;;;;;2.28;77.14;100743.78;1754355;80;20202;-80
2022/01/16 08:13:05;;;;;;;;;;;;;;;3.00;74.92;100736.11;1770617;80;20172;-77
2022/01/16 08:15:31;;;;;;;;;;;;;;;2.93;75.28;100732.17;1757878;80;20221;-79
2022/01/16 08:17:56;;;;;;;;;;;;;;;3.15;75.19;100732.53;1760534;80;21154;-80
2022/01/16 08:20:22;;;;;;;;;;;;;;;3.30;75.03;100726.02;1763528;80;20178;-79
2022/01/16 08:22:48;;;;;;;;;;;;;;;3.47;74.46;100733.62;1753366;80;20176;-79
2022/01/16 08:25:13;;;;;;;;;;;;;;;3.47;73.86;100731.02;1764951;80;20102;-80
2022/01/16 08:27:39;;;;;;;;;;;;;;;3.34;73.89;100720.96;1772043;80;20116;-80
2022/01/16 08:30:06;;;;;;;;;;;;;;;3.46;74.13;100724.59;1749198;80;21143;-79
2022/01/16 08:32:32;;;;;;;;;;;;;;;3.53;73.87;100716.27;1771592;80;20157;-80
2022/01/16 08:34:57;;;;;;;;;;;;;;;3.54;73.73;100710.12;1758028;80;20170;-77
2022/01/16 08:37:23;;;;;;;;;;;;;;;3.36;74.10;100704.76;1763291;80;20112;-77
2022/01/16 08:39:48;;;;;;;;;;;;;;;3.53;74.21;100707.14;1768222;80;20162;-80
2022/01/16 08:42:15;;;;;;;;;;;;;;;3.35;74.52;100701.77;1764077;80;21269;-79
2022/01/16 08:44:42;;;;;;;;;;;;;;;3.39;74.40;100705.88;1765901;80;20159;-81
2022/01/16 08:47:08;;;;;;;;;;;;;;;3.55;74.61;100698.73;1759049;80;20222;-80
2022/01/16 08:49:34;;;;;;;;;;;;;;;3.67;73.86;100700.21;1754167;80;20135;-78
2022/01/16 08:51:59;;;;;;;;;;;;;;;3.57;74.20;100697.33;1772912;79;20170;-78
2022/01/16 08:54:25;;;;;;;;;;;;;;;3.70;74.22;100683.87;1765466;80;21974;-80
2022/01/16 08:56:50;;;;;;;;;;;;;;;3.70;73.69;100677.81;1760231;80;20162;-79
2022/01/16 08:59:16;;;;;;;;;;;;;;;3.76;74.04;100678.73;1761723;80;20177;-78
2022/01/16 09:01:42;;;;;;;;;;;;;;;3.78;73.91;100675.53;1761025;80;20130;-79
2022/01/16 09:04:07;;;;;;;;;;;;;;;3.85;73.75;100660.29;1770183;80;20533;-80
2022/01/16 09:06:33;;;;;;;;;;;;;;;3.95;73.61;100654.84;1764327;80;21176;-80
2022/01/16 09:08:58;;;;;;;;;;;;;;;3.95;73.53;100644.39;1752425;80;20137;-81
2022/01/16 09:11:25;;;;;;;;;;;;;;;4.04;73.30;100642.48;1768239;80;20209;-81
2022/01/16 09:13:53;;;;;;;;;;;;;;;4.05;72.89;100644.13;1753814;80;20252;-82
2022/01/16 09:16:19;;;;;;;;;;;;;;;4.20;72.77;100639.67;1759766;80;20519;-81
2022/01/16 09:18:45;;;;;;;;;;;;;;;4.16;72.73;100636.88;1759622;80;21121;-78
2022/01/16 09:21:11;;;;;;;;;;;;;;;4.30;73.14;100642.05;1754997;80;20141;-81
2022/01/16 09:23:38;;;;;;;;;;;;;;;4.32;72.59;100638.02;1765114;80;20162;-79
2022/01/16 09:26:03;;;;;;;;;;;;;;;4.37;72.33;100629.86;1761213;80;20146;-80
2022/01/16 09:28:29;;;;;;;;;;;;;;;4.43;72.08;100633.37;1757035;80;20280;-78
2022/01/16 09:30:55;;;;;;;;;;;;;;;4.30;72.09;100627.66;1759326;80;21168;-80
2022/01/16 09:33:21;;;;;;;;;;;;;;;4.53;71.90;100627.86;1755607;80;20143;-80
2022/01/16 09:35:47;;;;;;;;;;;;;;;4.54;71.94;100616.46;1751630;80;20160;-82
2022/01/16 09:38:12;;;;;;;;;;;;;;;4.36;72.07;100604.64;1767052;80;20177;-79
2022/01/16 09:40:38;;;;;;;;;;;;;;;4.60;71.79;100609.50;1761299;80;20797;-79
2022/01/16 09:43:04;;;;;;;;;;;;;;;4.01;73.48;100603.93;1765336;80;21860;-78
2022/01/16 09:45:30;;;;;;;;;;;;;;;3.86;74.30;100592.75;1774396;80;20187;-79
2022/01/16 09:47:55;;;;;;;;;;;;;;;3.87;74.71;100586.11;1769591;80;20284;-81
2022/01/16 09:50:24;;;;;;;;;;;;;;;4.49;72.73;100583.27;1763249;80;20542;-80
2022/01/16 09:52:49;;;;;;;;;;;;;;;4.59;72.16;100582.14;1758688;80;20196;-81
2022/01/16 09:55:15;;;;;;;;;;;;;;;4.45;72.54;100585.72;1760770;80;22016;-80
2022/01/16 09:57:41;;;;;;;;;;;;;;;4.62;72.07;100574.08;1755970;80;20126;-80
2022/01/16 10:00:09;;;;;;;;;;;;;;;4.83;71.95;100574.33;1764794;79;20830;-82
2022/01/16 10:02:35;;;;;;;;;;;;;;;4.50;72.26;100580.98;1755373;80;21054;-80
2022/01/16 10:05:01;;;;;;;;;;;;;;;4.12;73.69;100589.69;1752412;80;20144;-79
2022/01/16 10:07:26;;;;;;;;;;;;;;;4.39;73.40;100579.59;1742262;80;21091;-77
2022/01/16 10:10:07;;;;;;;;;;;;;;;4.67;73.10;100571.48;1763384;80;20615;-80
2022/01/16 10:12:34;;;;;;;;;;;;;;;4.65;72.75;100566.02;1749985;80;20196;-82
2022/01/16 10:14:59;;;;;;;;;;;;;;;4.30;73.47;100563.61;1757135;79;20173;-81
2022/01/16 10:17:25;;;;;;;;;;;;;;;4.68;73.02;100558.78;1748177;80;20221;-82
2022/01/16 10:20:01;;;;;;;;;;;;;;;4.67;72.85;100547.95;1767895;79;21146;-81
2022/01/16 10:22:46;;;;;;;;;;;;;;;4.83;72.44;100541.63;1759291;80;20150;-83
2022/01/16 10:25:14;;;;;;;;;;;;;;;4.91;72.32;100531.47;1760665;80;33121;-82
2022/01/16 10:27:43;;;;;;;;;;;;;;;5.09;72.02;100531.08;1768262;79;20117;-82
2022/01/16 10:30:12;;;;;;;;;;;;;;;5.01;71.86;100521.16;1765419;80;20136;-85
2022/01/16 10:32:42;;;;;;;;;;;;;;;5.18;72.13;100510.78;1764073;80;20821;-81
2022/01/16 10:35:20;;;;;;;;;;;;;;;5.35;71.66;100507.74;1751503;80;20472;-81
2022/01/16 10:37:47;;;;;;;;;;;;;;;5.19;71.66;100494.13;1758818;79;20135;-84
2022/01/16 10:40:18;;;;;;;;;;;;;;;4.89;72.35;100482.31;1768358;80;20553;-80
2022/01/16 10:42:49;;;;;;;;;;;;;;;5.09;72.13;100493.12;1762698;79;20093;-83
2022/01/16 10:45:16;;;;;;;;;;;;;;;4.84;72.58;100492.28;1765179;80;21082;-81
2022/01/16 10:47:43;;;;;;;;;;;;;;;4.92;72.72;100503.51;1758683;80;20162;-82
2022/01/16 10:50:15;;;;;;;;;;;;;;;4.89;72.89;100492.78;1763818;80;20211;-83
2022/01/16 10:52:49;;;;;;;;;;;;;;;4.75;73.40;100487.71;1764336;80;20194;-81
2022/01/16 10:55:15;;;;;;;;;;;;;;;4.63;73.87;100487.66;1760976;80;20224;-81
2022/01/16 10:57:41;;;;;;;;;;;;;;;4.90;73.61;100486.61;1764388;80;21053;-81
2022/01/16 11:00:12;;;;;;;;;;;;;;;4.99;73.06;100484.63;1761197;80;20570;-80
2022/01/16 11:02:38;;;;;;;;;;;;;;;4.96;72.86;100482.24;1761880;80;20223;-80
2022/01/16 11:05:23;;;;;;;;;;;;;;;5.06;73.19;100475.02;1763999;80;20600;-83
2022/01/16 11:08:01;;;;;;;;;;;;;;;5.11;72.84;100475.52;1753083;80;20961;-81
2022/01/16 11:10:33;;;;;;;;;;;;;;;5.04;73.42;100478.58;1763497;80;21023;-86
2022/01/16 11:13:01;;;;;;;;;;;;;;;5.24;72.88;100473.67;1760205;80;20179;-81
2022/01/16 11:15:26;;;;;;;;;;;;;;;5.29;72.94;100471.53;1759594;80;20207;-80
2022/01/16 11:17:52;;;;;;;;;;;;;;;5.31;72.88;100465.70;1768120;80;20482;-80
2022/01/16 11:20:22;;;;;;;;;;;;;;;4.89;73.75;100461.38;1753816;80;20172;-79
2022/01/16 11:23:00;;;;;;;;;;;;;;;5.22;73.16;100459.88;1748177;80;20098;-81
2022/01/16 11:25:31;;;;;;;;;;;;;;;5.21;72.75;100447.72;1763808;80;20174;-80
2022/01/16 11:27:54;;;;;;;;;;;;;;;4.95;73.21;100451.77;1751706;80;20221;-82
2022/01/16 11:30:19;;;;;;;;;;;;;;;5.21;73.06;100443.30;1771481;80;20126;-81
2022/01/16 11:32:45;;;;;;;;;;;;;;;5.15;73.19;100441.63;1753289;80;20123;-82
2022/01/16 11:35:11;;;;;;;;;;;;;;;5.01;73.72;100439.55;1757257;80;21159;-80
2022/01/16 11:37:36;;;;;;;;;;;;;;;5.53;72.51;100427.42;1728998;81;20856;-80
2022/01/16 11:40:20;;;;;;;;;;;;;;;5.66;71.63;100415.06;1746200;81;20252;-80
2022/01/16 11:43:25;;;;;;;;;;;;;;;4.78;73.34;100425.52;1731328;81;20642;-79
2022/01/16 11:45:57;;;;;;;;;;;;;;;4.29;76.42;100420.75;1691064;82;20413;-82
2022/01/16 11:48:40;;;;;;;;;;;;;;;3.51;79.07;100417.03;1698558;82;21114;-79
2022/01/16 11:51:28;;;;;;;;;;;;;;;3.69;79.56;100406.63;1743346;80;20990;-79
2022/01/16 11:54:08;;;;;;;;;;;;;;;3.82;79.28;100406.61;1734049;80;20173;-79
2022/01/16 11:56:44;;;;;;;;;;;;;;;4.00;78.63;100403.69;1752239;80;20225;-81
2022/01/16 11:59:15;;;;;;;;;;;;;;;4.16;78.03;100396.90;1761268;80;20188;-77
2022/01/16 12:01:54;;;;;;;;;;;;;;;3.78;79.32;100392.12;1760687;80;21176;-81
2022/01/16 12:04:32;;;;;;;;;;;;;;;3.42;80.28;100387.17;1754962;80;20165;-80
2022/01/16 12:07:20;;;;;;;;;;;;;;;3.19;81.75;100385.64;1767908;80;20128;-80
2022/01/16 12:09:53;;;;;;;;;;;;;;;3.87;78.99;100379.72;1755402;80;20182;-82
2022/01/16 12:12:22;;;;;;;;;;;;;;;3.50;80.56;100374.91;1758516;80;20582;-79
2022/01/16 12:14:55;;;;;;;;;;;;;;;4.26;77.87;100374.41;1759275;80;21310;-79
2022/01/16 12:17:31;;;;;;;;;;;;;;;5.01;74.85;100371.49;1762958;80;20153;-80
2022/01/16 12:19:58;;;;;;;;;;;;;;;4.41;75.76;100361.98;1767761;80;20177;-83
2022/01/16 12:22:53;;;;;;;;;;;;;;;4.42;75.92;100366.28;1767507;80;20155;-80
2022/01/16 12:25:37;;;;;;;;;;;;;;;4.54;75.45;100361.47;1758542;80;20228;-81
2022/01/16 12:28:12;;;;;;;;;;;;;;;4.41;77.39;100343.68;1759581;80;21094;-78
2022/01/16 12:30:59;;;;;;;;;;;;;;;5.30;73.58;100355.38;1758094;80;20148;-78
2022/01/16 12:33:37;;;;;;;;;;;;;;;5.36;73.08;100347.06;1759199;80;20147;-83
2022/01/16 12:36:08;;;;;;;;;;;;;;;5.36;73.08;100341.82;1755110;80;20682;-81
2022/01/16 12:38:34;;;;;;;;;;;;;;;5.38;72.80;100332.05;1751051;80;20106;-82
2022/01/16 12:41:03;;;;;;;;;;;;;;;5.53;72.66;100322.64;1752028;80;21133;-81
2022/01/16 12:43:32;;;;;;;;;;;;;;;5.64;71.81;100325.73;1758890;80;20124;-78
2022/01/16 12:45:56;;;;;;;;;;;;;;;5.46;72.63;100328.02;1751465;80;20970;-80
2022/01/16 12:48:22;;;;;;;;;;;;;;;5.48;72.22;100313.02;1761116;80;20192;-78
2022/01/16 12:50:48;;;;;;;;;;;;;;;5.69;71.92;100315.27;1764276;80;20233;-79
2022/01/16 12:53:13;;;;;;;;;;;;;;;6.03;70.63;100310.00;1756318;79;21161;-77
2022/01/16 12:55:39;;;;;;;;;;;;;;;5.56;71.09;100308.85;1755810;80;20163;-80
2022/01/16 12:58:17;;;;;;;;;;;;;;;5.54;71.35;100312.53;1763058;80;20227;-78
2022/01/16 13:01:04;;;;;;;;;;;;;;;5.47;71.68;100306.09;1763121;80;20155;-75
2022/01/16 13:03:31;;;;;;;;;;;;;;;5.48;71.47;100303.36;1760006;80;20210;-76
2022/01/16 13:06:19;;;;;;;;;;;;;;;5.28;71.74;100304.90;1761165;80;20990;-77
2022/01/16 13:09:03;;;;;;;;;;;;;;;5.51;71.30;100297.05;1767163;80;20086;-76
2022/01/16 13:11:34;;;;;;;;;;;;;;;5.20;71.46;100298.97;1764378;80;20150;-77
2022/01/16 13:14:00;;;;;;;;;;;;;;;5.27;71.68;100300.63;1763765;80;20170;-76
2022/01/16 13:16:28;;;;;;;;;;;;;;;5.21;71.24;100284.09;1760132;80;20247;-77
2022/01/16 13:19:13;;;;;;;;;;;;;;;5.53;70.88;100276.80;1759316;80;21139;-76
2022/01/16 13:21:56;;;;;;;;;;;;;;;5.35;70.94;100269.44;1765368;80;20173;-80